createdAt,value
2019-04-22T00:01:45.594Z,22.29
2019-04-22T00:04:33.786Z,22.28
2019-04-22T00:07:15.616Z,21.98
2019-04-22T00:09:51.745Z,22.25
2019-04-22T00:12:27.751Z,22.27
2019-04-22T00:14:55.496Z,22.19
2019-04-22T00:17:38.808Z,22.26
2019-04-22T00:22:38.642Z,22.27
2019-04-22T00:25:17.917Z,22.07
2019-04-22T00:30:22.594Z,22.16
2019-04-22T00:33:16.488Z,22.13
2019-04-22T00:35:48.122Z,22.16
2019-04-22T00:38:26.546Z,22.11
2019-04-22T00:41:00.885Z,22.08
2019-04-22T00:43:42.209Z,21.59
2019-04-22T00:46:19.670Z,21.82
2019-04-22T00:48:57.600Z,21.70
2019-04-22T00:51:22.615Z,21.73
2019-04-22T00:53:54.624Z,21.60
2019-04-22T00:56:30.882Z,21.69
2019-04-22T00:58:59.132Z,21.84
2019-04-22T01:01:40.647Z,21.82
2019-04-22T01:06:48.936Z,21.68
2019-04-22T01:09:17.336Z,21.47
2019-04-22T01:11:52.607Z,21.47
2019-04-22T01:14:29.409Z,21.44
2019-04-22T01:17:09.324Z,21.35
2019-04-22T01:22:39.365Z,21.44
2019-04-22T01:24:56.414Z,21.08
2019-04-22T01:27:26.339Z,21.15
2019-04-22T01:29:55.574Z,21.30
2019-04-22T01:32:52.079Z,21.10
2019-04-22T01:35:49.252Z,20.95
2019-04-22T01:39:09.182Z,20.85
2019-04-22T01:42:05.986Z,20.78
2019-04-22T01:44:40.539Z,20.86
2019-04-22T01:47:18.586Z,20.47
2019-04-22T01:49:52.754Z,20.47
2019-04-22T01:52:20.304Z,20.65
2019-04-22T01:55:04.327Z,20.57
2019-04-22T01:57:37.715Z,20.34
2019-04-22T02:00:09.153Z,20.62
2019-04-22T02:02:59.160Z,20.66
2019-04-22T02:05:26.787Z,20.40
2019-04-22T02:08:09.642Z,20.40
2019-04-22T02:13:06.698Z,20.28
2019-04-22T02:15:47.347Z,20.06
2019-04-22T02:18:24.417Z,20.51
2019-04-22T02:20:48.829Z,20.51
2019-04-22T02:23:47.130Z,20.61
2019-04-22T02:26:07.611Z,20.15
2019-04-22T02:31:25.866Z,20.13
2019-04-22T02:34:09.588Z,20.27
2019-04-22T02:36:30.399Z,20.07
2019-04-22T02:39:07.136Z,20.01
2019-04-22T02:41:31.250Z,20.08
2019-04-22T02:44:13.426Z,19.80
2019-04-22T02:47:11.853Z,19.79
2019-04-22T02:49:27.066Z,20.10
2019-04-22T02:51:52.215Z,19.82
2019-04-22T02:54:38.364Z,19.78
2019-04-22T02:57:10.133Z,19.81
2019-04-22T02:59:39.698Z,19.80
2019-04-22T03:05:36.537Z,19.06
2019-04-22T03:08:10.812Z,19.54
2019-04-22T03:10:53.607Z,19.66
2019-04-22T03:13:21.277Z,19.75
2019-04-22T03:15:53.175Z,19.75
2019-04-22T03:18:35.969Z,19.72
2019-04-22T03:20:58.245Z,19.76
2019-04-22T03:28:47.851Z,19.71
2019-04-22T03:32:17.331Z,19.76
2019-04-22T03:39:45.660Z,19.79
2019-04-22T03:44:50.167Z,19.82
2019-04-22T03:47:29.111Z,19.80
2019-04-22T03:50:04.139Z,20.07
2019-04-22T03:52:26.979Z,20.00
2019-04-22T04:03:04.995Z,19.68
2019-04-22T04:05:50.341Z,19.86
2019-04-22T04:08:17.339Z,19.60
2019-04-22T04:10:57.818Z,19.66
2019-04-22T04:13:41.398Z,19.63
2019-04-22T04:15:57.622Z,19.80
2019-04-22T04:21:34.860Z,19.24
2019-04-22T04:26:28.867Z,19.36
2019-04-22T04:35:05.360Z,19.27
2019-04-22T04:40:07.476Z,18.95
2019-04-22T04:50:27.816Z,18.90
2019-04-22T04:55:49.118Z,19.01
2019-04-22T05:03:32.718Z,19.01
2019-04-22T05:06:05.561Z,18.92
2019-04-22T05:09:00.909Z,18.78
2019-04-22T05:14:02.540Z,19.10
2019-04-22T05:19:02.386Z,19.05
2019-04-22T05:24:09.586Z,18.54
2019-04-22T05:26:46.628Z,19.21
2019-04-22T05:29:15.170Z,19.18
2019-04-22T05:31:52.079Z,19.12
2019-04-22T05:34:16.303Z,19.06
2019-04-22T05:39:25.034Z,19.08
2019-04-22T05:41:54.750Z,19.06
2019-04-22T05:44:29.477Z,19.11
2019-04-22T05:47:09.934Z,19.36
2019-04-22T05:49:35.126Z,19.35
2019-04-22T05:52:14.762Z,19.30
2019-04-22T05:54:54.969Z,19.36
2019-04-22T05:57:23.365Z,19.37
2019-04-22T06:00:07.880Z,19.39
2019-04-22T06:05:11.939Z,19.63
2019-04-22T06:07:47.182Z,19.68
2019-04-22T06:10:53.841Z,19.58
2019-04-22T06:12:52.410Z,19.59
2019-04-22T06:15:36.244Z,19.58
2019-04-22T06:18:24.896Z,19.98
2019-04-22T06:21:05.986Z,20.02
2019-04-22T06:26:35.896Z,20.00
2019-04-22T06:29:11.911Z,19.98
2019-04-22T06:32:06.953Z,19.94
2019-04-22T06:34:17.217Z,19.99
2019-04-22T06:36:54.204Z,19.99
2019-04-22T06:42:00.972Z,19.97
2019-04-22T06:44:36.866Z,20.22
2019-04-22T06:47:40.148Z,20.01
2019-04-22T06:49:41.606Z,20.00
2019-04-22T06:52:18.322Z,20.30
2019-04-22T06:54:50.398Z,20.47
2019-04-22T06:57:19.632Z,20.49
2019-04-22T06:59:59.008Z,20.02
2019-04-22T07:05:01.766Z,20.03
2019-04-22T07:07:34.835Z,20.73
2019-04-22T07:10:22.225Z,20.73
2019-04-22T07:12:41.853Z,20.00
2019-04-22T07:15:23.159Z,20.37
2019-04-22T07:17:58.407Z,20.44
2019-04-22T07:20:30.537Z,20.29
2019-04-22T07:23:04.476Z,20.73
2019-04-22T07:25:38.224Z,20.79
2019-04-22T07:28:08.316Z,20.79
2019-04-22T07:31:01.865Z,20.69
2019-04-22T07:33:19.423Z,20.46
2019-04-22T07:36:08.461Z,20.96
2019-04-22T07:40:56.158Z,21.07
2019-04-22T07:46:12.046Z,21.73
2019-04-22T07:48:59.428Z,21.85
2019-04-22T07:51:36.731Z,22.13
2019-04-22T07:54:39.683Z,22.28
2019-04-22T07:57:18.433Z,21.99
2019-04-22T07:59:46.955Z,22.33
2019-04-22T08:02:30.257Z,21.86
2019-04-22T08:05:09.899Z,22.49
2019-04-22T08:12:34.923Z,22.69
2019-04-22T08:15:06.101Z,22.69
2019-04-22T08:20:20.100Z,22.73
2019-04-22T08:22:53.624Z,23.16
2019-04-22T08:25:18.115Z,23.11
2019-04-22T08:27:50.514Z,23.05
2019-04-22T08:30:28.859Z,23.21
2019-04-22T08:33:01.055Z,23.44
2019-04-22T08:38:09.969Z,23.49
2019-04-22T08:40:47.273Z,23.73
2019-04-22T08:43:27.060Z,23.93
2019-04-22T08:45:50.040Z,24.34
2019-04-22T08:48:23.096Z,24.15
2019-04-22T08:51:00.610Z,24.61
2019-04-22T08:53:35.883Z,24.64
2019-04-22T08:56:17.156Z,24.69
2019-04-22T08:58:31.702Z,24.74
2019-04-22T09:01:11.266Z,24.65
2019-04-22T09:03:45.562Z,24.89
2019-04-22T09:06:35.455Z,25.05
2019-04-22T09:09:01.429Z,25.21
2019-04-22T09:14:09.770Z,25.14
2019-04-22T09:19:12.572Z,25.72
2019-04-22T09:21:54.424Z,25.18
2019-04-22T09:24:23.377Z,25.50
2019-04-22T09:27:05.569Z,25.76
2019-04-22T09:29:34.193Z,25.98
2019-04-22T09:32:11.587Z,26.13
2019-04-22T09:34:47.280Z,26.07
2019-04-22T09:37:30.460Z,25.91
2019-04-22T09:42:24.058Z,25.94
2019-04-22T09:44:51.910Z,26.00
2019-04-22T09:47:35.974Z,25.56
2019-04-22T09:50:26.097Z,25.74
2019-04-22T09:52:45.597Z,26.13
2019-04-22T09:57:47.156Z,27.04
2019-04-22T10:00:22.949Z,27.36
2019-04-22T10:03:03.465Z,27.46
2019-04-22T10:08:10.665Z,27.80
2019-04-22T10:10:46.469Z,28.03
2019-04-22T10:13:19.179Z,28.25
2019-04-22T10:15:55.873Z,28.12
2019-04-22T10:18:38.725Z,27.99
2019-04-22T10:21:35.585Z,28.17
2019-04-22T10:23:59.576Z,27.62
2019-04-22T10:26:36.523Z,27.35
2019-04-22T10:29:05.919Z,27.96
2019-04-22T10:34:03.892Z,28.27
2019-04-22T10:36:23.563Z,28.65
2019-04-22T10:39:00.556Z,28.78
2019-04-22T10:41:34.599Z,28.65
2019-04-22T10:44:08.795Z,28.70
2019-04-22T10:46:42.296Z,28.76
2019-04-22T10:49:12.752Z,29.29
2019-04-22T10:51:44.558Z,29.40
2019-04-22T10:54:20.514Z,29.45
2019-04-22T10:56:52.903Z,29.49
2019-04-22T10:59:24.765Z,29.29
2019-04-22T11:01:55.057Z,29.93
2019-04-22T11:04:26.078Z,29.90
2019-04-22T11:07:01.976Z,30.13
2019-04-22T11:09:45.428Z,30.30
2019-04-22T11:12:11.672Z,30.61
2019-04-22T11:14:41.154Z,30.30
2019-04-22T11:17:13.501Z,30.50
2019-04-22T11:19:45.815Z,30.83
2019-04-22T11:22:22.961Z,30.84
2019-04-22T11:24:50.954Z,31.29
2019-04-22T11:27:23.246Z,31.19
2019-04-22T11:29:55.511Z,31.71
2019-04-22T11:32:28.936Z,32.02
2019-04-22T11:34:59.338Z,31.86
2019-04-22T11:37:32.767Z,32.11
2019-04-22T11:40:21.575Z,32.26
2019-04-22T11:42:46.030Z,32.28
2019-04-22T11:45:21.559Z,32.78
2019-04-22T11:47:53.457Z,32.75
2019-04-22T11:50:28.091Z,32.62
2019-04-22T11:52:58.821Z,32.96
2019-04-22T11:55:37.012Z,33.23
2019-04-22T11:58:08.697Z,33.39
2019-04-22T12:00:43.226Z,33.89
2019-04-22T12:03:14.982Z,34.24
2019-04-22T12:05:48.079Z,33.86
2019-04-22T12:08:22.761Z,33.65
2019-04-22T12:10:58.155Z,33.87
2019-04-22T12:13:28.184Z,34.39
2019-04-22T12:15:59.091Z,34.77
2019-04-22T12:18:31.169Z,34.98
2019-04-22T12:21:03.609Z,34.64
2019-04-22T12:23:37.078Z,34.72
2019-04-22T12:26:14.096Z,35.08
2019-04-22T12:28:44.748Z,34.94
2019-04-22T12:31:15.847Z,34.77
2019-04-22T12:33:47.662Z,34.97
2019-04-22T12:36:20.227Z,35.59
2019-04-22T12:38:58.000Z,35.56
2019-04-22T12:41:51.976Z,35.93
2019-04-22T12:44:30.448Z,35.99
2019-04-22T12:47:06.127Z,36.36
2019-04-22T12:49:49.299Z,36.98
2019-04-22T12:52:30.573Z,36.70
2019-04-22T12:54:55.170Z,36.85
2019-04-22T12:57:28.560Z,37.56
2019-04-22T13:00:03.644Z,37.61
2019-04-22T13:02:36.752Z,37.80
2019-04-22T13:05:12.438Z,37.57
2019-04-22T13:07:44.203Z,37.85
2019-04-22T13:10:17.774Z,37.10
2019-04-22T13:12:50.989Z,37.36
2019-04-22T13:15:23.907Z,37.43
2019-04-22T13:18:09.833Z,37.77
2019-04-22T13:20:34.536Z,36.81
2019-04-22T13:23:05.221Z,37.64
2019-04-22T13:25:38.881Z,38.36
2019-04-22T13:28:13.307Z,38.08
2019-04-22T13:30:48.633Z,38.74
2019-04-22T13:33:21.282Z,38.37
2019-04-22T13:35:52.295Z,39.85
2019-04-22T13:38:24.852Z,40.58
2019-04-22T13:41:09.823Z,41.49
2019-04-22T13:43:31.465Z,41.69
2019-04-22T13:46:14.462Z,42.52
2019-04-22T13:49:09.349Z,41.91
2019-04-22T13:51:53.086Z,42.74
2019-04-22T13:54:50.422Z,44.04
2019-04-22T13:56:56.978Z,45.18
2019-04-22T13:59:39.868Z,46.03
2019-04-22T14:02:24.459Z,45.29
2019-04-22T14:05:02.044Z,46.46
2019-04-22T14:07:43.332Z,46.38
2019-04-22T14:10:26.833Z,47.00
2019-04-22T14:13:00.199Z,47.10
2019-04-22T14:15:33.972Z,48.31
2019-04-22T14:18:07.258Z,48.43
2019-04-22T14:20:38.786Z,49.11
2019-04-22T14:23:12.286Z,48.94
2019-04-22T14:25:43.059Z,48.71
2019-04-22T14:28:17.577Z,48.11
2019-04-22T14:30:50.603Z,48.69
2019-04-22T14:33:22.652Z,49.28
2019-04-22T14:35:53.833Z,49.24
2019-04-22T14:38:25.847Z,49.55
2019-04-22T14:40:58.576Z,49.99
2019-04-22T14:43:59.975Z,50.24
2019-04-22T14:46:35.113Z,48.98
2019-04-22T14:49:02.907Z,49.09
2019-04-22T14:51:31.920Z,46.42
2019-04-22T14:54:05.299Z,46.68
2019-04-22T14:56:28.664Z,46.59
2019-04-22T14:59:20.855Z,46.60
2019-04-22T15:01:59.395Z,47.03
2019-04-22T15:04:33.067Z,47.30
2019-04-22T15:07:08.882Z,45.86
2019-04-22T15:09:39.878Z,46.21
2019-04-22T15:12:21.706Z,46.99
2019-04-22T15:14:47.824Z,47.48
2019-04-22T15:17:40.917Z,48.01
2019-04-22T15:20:25.890Z,47.52
2019-04-22T15:23:00.389Z,47.08
2019-04-22T15:25:34.838Z,46.22
2019-04-22T15:28:13.314Z,45.32
2019-04-22T15:30:47.725Z,41.69
2019-04-22T15:33:21.294Z,40.33
2019-04-22T15:35:53.578Z,39.79
2019-04-22T15:38:28.265Z,38.41
2019-04-22T15:41:00.767Z,37.90
2019-04-22T15:43:35.495Z,36.38
2019-04-22T15:46:11.749Z,36.27
2019-04-22T15:49:18.065Z,35.47
2019-04-22T15:52:12.391Z,34.61
2019-04-22T15:55:06.756Z,33.44
2019-04-22T15:57:39.448Z,33.90
2019-04-22T16:00:36.758Z,33.69
2019-04-22T16:02:59.625Z,32.74
2019-04-22T16:05:32.266Z,32.51
2019-04-22T16:08:06.703Z,32.41
2019-04-22T16:10:39.963Z,32.58
2019-04-22T16:13:17.283Z,32.14
2019-04-22T16:15:46.668Z,31.63
2019-04-22T16:18:20.223Z,31.76
2019-04-22T16:20:54.183Z,31.52
2019-04-22T16:23:52.116Z,31.35
2019-04-22T16:26:46.652Z,31.35
2019-04-22T16:29:19.190Z,30.92
2019-04-22T16:31:51.529Z,30.96
2019-04-22T16:34:23.716Z,30.87
2019-04-22T16:36:56.744Z,30.65
2019-04-22T16:39:28.835Z,30.55
2019-04-22T16:42:02.633Z,30.85
2019-04-22T16:44:34.672Z,30.86
2019-04-22T16:47:05.904Z,30.36
2019-04-22T16:49:41.537Z,30.38
2019-04-22T16:52:21.903Z,30.37
2019-04-22T16:54:54.866Z,30.38
2019-04-22T16:57:33.712Z,30.35
2019-04-22T17:00:04.752Z,30.55
2019-04-22T17:03:16.285Z,30.10
2019-04-22T17:06:11.849Z,30.29
2019-04-22T17:08:55.161Z,30.03
2019-04-22T17:11:27.618Z,30.15
2019-04-22T17:13:59.334Z,30.06
2019-04-22T17:16:30.629Z,30.00
2019-04-22T17:19:02.535Z,29.95
2019-04-22T17:21:35.519Z,30.05
2019-04-22T17:24:09.694Z,30.09
2019-04-22T17:26:40.054Z,29.98
2019-04-22T17:29:20.907Z,29.99
2019-04-22T17:32:00.366Z,29.93
2019-04-22T17:34:31.777Z,29.38
2019-04-22T17:37:15.490Z,29.69
2019-04-22T17:39:57.389Z,29.34
2019-04-22T17:42:39.874Z,29.50
2019-04-22T17:45:31.349Z,29.30
2019-04-22T17:48:18.344Z,29.42
2019-04-22T17:50:53.880Z,29.57
2019-04-22T17:56:28.237Z,29.09
2019-04-22T17:59:18.073Z,29.21
2019-04-22T18:01:45.089Z,29.17
2019-04-22T18:04:02.939Z,28.95
2019-04-22T18:07:07.383Z,28.92
2019-04-22T18:09:51.463Z,28.94
2019-04-22T18:12:16.225Z,29.03
2019-04-22T18:17:25.458Z,29.01
2019-04-22T18:19:51.847Z,29.09
2019-04-22T18:22:22.638Z,28.92
2019-04-22T18:24:52.930Z,28.97
2019-04-22T18:30:06.409Z,28.82
2019-04-22T18:32:43.860Z,28.56
2019-04-22T18:35:20.438Z,28.43
2019-04-22T18:37:54.819Z,28.44
2019-04-22T18:40:24.265Z,28.36
2019-04-22T18:43:03.659Z,28.36
2019-04-22T18:45:54.868Z,27.91
2019-04-22T18:48:02.916Z,28.15
2019-04-22T18:50:53.281Z,27.98
2019-04-22T18:54:00.140Z,27.82
2019-04-22T19:00:21.560Z,27.99
2019-04-22T19:03:05.277Z,27.95
2019-04-22T19:05:54.381Z,27.81
2019-04-22T19:08:29.282Z,27.59
2019-04-22T19:11:05.020Z,27.55
2019-04-22T19:14:07.621Z,27.35
2019-04-22T19:16:45.596Z,27.19
2019-04-22T19:19:38.358Z,27.08
2019-04-22T19:22:07.652Z,27.14
2019-04-22T19:24:41.865Z,26.82
2019-04-22T19:27:18.748Z,27.05
2019-04-22T19:29:54.005Z,26.87
2019-04-22T19:32:25.363Z,26.72
2019-04-22T19:34:52.718Z,26.91
2019-04-22T19:37:28.477Z,26.26
2019-04-22T19:40:09.547Z,26.58
2019-04-22T19:42:43.256Z,26.32
2019-04-22T19:45:14.744Z,26.44
2019-04-22T19:47:50.441Z,26.33
2019-04-22T19:50:23.013Z,26.27
2019-04-22T19:52:56.751Z,26.19
2019-04-22T19:55:23.837Z,26.02
2019-04-22T19:57:54.576Z,25.72
2019-04-22T20:00:37.490Z,25.80
2019-04-22T20:03:57.994Z,25.51
2019-04-22T20:06:52.276Z,25.70
2019-04-22T20:09:46.760Z,25.51
2019-04-22T20:12:31.823Z,25.65
2019-04-22T20:20:42.121Z,25.10
2019-04-22T20:23:02.358Z,25.35
2019-04-22T20:25:35.885Z,24.62
2019-04-22T20:28:17.711Z,24.88
2019-04-22T20:30:46.719Z,24.78
2019-04-22T20:33:18.658Z,24.58
2019-04-22T20:35:52.114Z,24.55
2019-04-22T20:38:24.876Z,24.72
2019-04-22T20:40:58.212Z,24.70
2019-04-22T20:43:43.132Z,24.87
2019-04-22T20:46:11.264Z,24.79
2019-04-22T20:48:48.461Z,24.82
2019-04-22T20:51:17.139Z,24.53
2019-04-22T20:53:56.539Z,24.70
2019-04-22T20:56:25.160Z,24.37
2019-04-22T20:59:02.115Z,24.49
2019-04-22T21:01:36.904Z,24.52
2019-04-22T21:03:59.217Z,24.52
2019-04-22T21:06:44.527Z,24.47
2019-04-22T21:09:22.117Z,24.24
2019-04-22T21:11:52.145Z,24.15
2019-04-22T21:14:27.449Z,24.24
2019-04-22T21:17:00.410Z,24.04
2019-04-22T21:19:51.757Z,24.08
2019-04-22T21:22:18.078Z,24.09
2019-04-22T21:24:47.552Z,23.77
2019-04-22T21:27:32.507Z,23.77
2019-04-22T21:29:52.282Z,23.81
2019-04-22T21:32:33.947Z,23.83
2019-04-22T21:35:18.573Z,23.57
2019-04-22T21:37:45.824Z,23.44
2019-04-22T21:40:20.206Z,23.68
2019-04-22T21:42:59.845Z,23.57
2019-04-22T21:45:30.680Z,23.64
2019-04-22T21:48:20.661Z,23.54
2019-04-22T21:50:54.324Z,23.73
2019-04-22T21:53:25.513Z,23.48
2019-04-22T21:56:00.253Z,23.20
2019-04-22T21:58:38.100Z,23.48
2019-04-22T22:01:29.125Z,23.44
2019-04-22T22:03:55.153Z,23.42
2019-04-22T22:06:19.530Z,23.65
2019-04-22T22:09:01.011Z,23.54
2019-04-22T22:11:35.824Z,23.66
2019-04-22T22:14:08.497Z,23.30
2019-04-22T22:16:37.486Z,23.16
2019-04-22T22:19:11.476Z,23.19
2019-04-22T22:21:51.432Z,23.35
2019-04-22T22:24:22.648Z,23.18
2019-04-22T22:26:55.301Z,23.22
2019-04-22T22:29:43.605Z,22.55
2019-04-22T22:32:12.881Z,22.57
2019-04-22T22:34:43.494Z,22.71
2019-04-22T22:37:07.716Z,22.75
2019-04-22T22:39:41.771Z,22.57
2019-04-22T22:42:03.827Z,22.34
2019-04-22T22:44:39.210Z,22.51
2019-04-22T22:47:25.863Z,21.93
2019-04-22T22:50:03.251Z,22.40
2019-04-22T22:53:07.862Z,22.20
2019-04-22T22:55:21.683Z,22.36
2019-04-22T22:58:00.931Z,22.15
2019-04-22T23:00:28.225Z,22.51
2019-04-22T23:03:36.341Z,22.52
2019-04-22T23:06:15.675Z,22.13
2019-04-22T23:08:51.723Z,22.10
2019-04-22T23:11:34.881Z,22.14
2019-04-22T23:14:05.385Z,22.44
2019-04-22T23:16:31.508Z,22.31
2019-04-22T23:19:06.439Z,22.30
2019-04-22T23:21:45.970Z,22.34
2019-04-22T23:24:55.506Z,21.98
2019-04-22T23:30:25.205Z,21.95
2019-04-22T23:33:13.235Z,21.59
2019-04-22T23:35:54.878Z,21.53
2019-04-22T23:38:42.523Z,21.53
2019-04-22T23:41:39.244Z,21.41
2019-04-22T23:46:52.172Z,21.18
2019-04-22T23:49:25.039Z,21.36
2019-04-22T23:52:10.172Z,21.64
2019-04-22T23:54:39.568Z,21.64
2019-04-22T23:57:31.375Z,21.48
